Terminal Aerodrome Forecast
Issued by NWS

Home | Current Version | Previous Version | Text Only | Print | Product List | Glossary On
Versions: 1 2 3 4 5 6 7 8 9 10 11 12 13 14 15 16 17 18 19 20 21 22 23 24 25 26 27 28 29 30
000
FTAK31 PANC 180536
TAFADL
TAF
PADL 180536Z 1806/1906 VRB05KT P6SM FEW100 SCT250
     FM181900 06006KT 4SM -SHSN BR FEW005 SCT025 OVC035
     FM182300 08008KT 2SM -SN BR SCT003 OVC015
     FM190300 09008G15KT 3SM -RASN BR BKN003 OVC015=

USA.gov is the U.S. government's official web portal to all federal, state and local government web resources and services.